Roswell, GA (30077)

2:38 AM EST on November 28, 2014 (GMT -0500)
Orion | Change Station
CLOSE
Current Station
Personal Weather Station
Location: Roswell, GA
Elevation: 1112 ft
Nearby Weather Stations

Elev 1112 ft 34.02 °N, 84.33 °W | Updated 9 seconds ago

Clear
Clear
27.1 °F
Feels Like 27 °F
N
0.7
Wind Variable Wind from NNW
Gusts 1.2 mph

Today
High -- | Low -- °F
--% Chance of Precip.
Yesterday
High -- | Low -- °F
Precip. -- in
7:22 AM 5:28 PM
Waxing Crescent, 37% visible
Pressure 30.40 in
Visibility 10.0 miles
Clouds Clear
Windchill 27 °F
Dew Point 20 °F
Humidity 73%
Rainfall 0.00 in
Snow Depth Not available.
UV 0 out of 12
Pollen 1.60 out of 12
Air Quality Not available.
Flu Activity Not available.
METAR KPDK 280653Z AUTO 33007KT 10SM CLR M01/M06 A3035 RMK AO2 SLP293 T10061061

More Conditions Fewer Conditions

Pressure 30.40 in
Visibility 10.0 miles
Clouds Clear
Windchill 27 °F
Dew Point 20 °F
Humidity 73%
Rainfall 0.00 in
Snow Depth Not available.
UV 0 out of 12
Pollen 1.60 out of 12
Air Quality Not available.
Flu Activity Not available.
METAR KPDK 280653Z AUTO 33007KT 10SM CLR M01/M06 A3035 RMK AO2 SLP293 T10061061

More Conditions Fewer Conditions

10-Day Weather Forecast

Almanac

Astronomy

Nov. 28, 2014 Rise Set
Actual Time
Civil Twilight
Nautical Twilight
Astronomical Twilight
Moon
Length of Visible Light
Length of Day
Tomorrow will be .
, % of the Moon is Illuminated

Today's Extremes

State Highs State Lows

Community

WunderPhotos

Upload Photos

1,774,190 photos uploaded!

WunderBlogs® & News

Nearby

Air Quality

  Air Quality AQ Index Pollutant
Not available.

Snow Depth

Station Depth Elevation

Earthquake Activity

City Distance Mag. Time & Date
Minimum magnitude displayed is 2.5.

Coastal Water Temperatures

Place Temperature

Nearby Weather Stations